createdAt,value
2018-07-27T00:00:21.478Z,41.4
2018-07-27T00:01:11.285Z,41.4
2018-07-27T00:02:00.281Z,41.4
2018-07-27T00:02:51.115Z,41.3
2018-07-27T00:03:40.930Z,41.3
2018-07-27T00:04:30.785Z,41.3
2018-07-27T00:05:20.822Z,41.3
2018-07-27T00:06:11.149Z,41.3
2018-07-27T00:07:00.971Z,41.3
2018-07-27T00:07:51.022Z,41.3
2018-07-27T00:08:41.276Z,41.3
2018-07-27T00:09:31.321Z,41.3
2018-07-27T00:10:22.086Z,41.3
2018-07-27T00:11:11.756Z,41.3
2018-07-27T00:12:02.118Z,41.3
2018-07-27T00:12:52.151Z,41.3
2018-07-27T00:13:41.989Z,41.3
2018-07-27T00:14:31.707Z,41.3
2018-07-27T00:15:22.117Z,41.3
2018-07-27T00:16:11.895Z,41.3
2018-07-27T00:17:02.204Z,41.3
2018-07-27T00:17:51.747Z,41.3
2018-07-27T00:18:42.054Z,41.3
2018-07-27T00:19:32.093Z,41.3
2018-07-27T00:20:22.504Z,41.3
2018-07-27T00:21:12.294Z,41.3
2018-07-27T00:22:02.306Z,41.3
2018-07-27T00:22:52.668Z,41.3
2018-07-27T00:23:43.012Z,41.3
2018-07-27T00:24:31.966Z,41.2
2018-07-27T00:25:22.940Z,41.3
2018-07-27T00:26:12.467Z,41.3
2018-07-27T00:27:03.262Z,41.2
2018-07-27T00:27:53.313Z,41.2
2018-07-27T00:28:43.674Z,41.2
2018-07-27T00:29:33.438Z,41.2
2018-07-27T00:30:23.821Z,41.2
2018-07-27T00:31:13.278Z,41.2
2018-07-27T00:32:03.931Z,41.2
2018-07-27T00:32:53.988Z,41.2
2018-07-27T00:33:43.184Z,41.2
2018-07-27T00:34:33.896Z,41.1
2018-07-27T00:35:23.923Z,41.1
2018-07-27T00:36:14.224Z,41.2
2018-07-27T00:37:04.019Z,41.1
2018-07-27T00:37:54.053Z,41.1
2018-07-27T00:38:43.837Z,41.1
2018-07-27T00:39:33.915Z,41.1
2018-07-27T00:40:23.443Z,41.1
2018-07-27T00:41:14.043Z,41.1
2018-07-27T00:42:03.850Z,41.1
2018-07-27T00:42:54.216Z,41.1
2018-07-27T00:43:43.668Z,41.1
2018-07-27T00:44:34.617Z,41.1
2018-07-27T00:45:24.129Z,41.1
2018-07-27T00:46:14.730Z,41.1
2018-07-27T00:47:04.450Z,41.1
2018-07-27T00:47:54.586Z,41.1
2018-07-27T00:48:44.959Z,41.1
2018-07-27T00:49:35.231Z,41.1
2018-07-27T00:50:24.518Z,41.1
2018-07-27T00:51:14.816Z,41.1
2018-07-27T00:52:05.430Z,41.1
2018-07-27T00:52:54.977Z,41.1
2018-07-27T00:53:45.035Z,41.1
2018-07-27T00:54:34.797Z,41
2018-07-27T00:55:24.617Z,41
2018-07-27T00:56:14.923Z,41
2018-07-27T00:57:05.038Z,41.1
2018-07-27T00:57:55.919Z,41
2018-07-27T00:58:44.879Z,41
2018-07-27T00:59:35.487Z,41
2018-07-27T01:00:25.541Z,41.1
2018-07-27T01:01:15.910Z,41
2018-07-27T01:02:05.176Z,41
2018-07-27T01:02:56.405Z,41
2018-07-27T01:03:45.783Z,41
2018-07-27T01:04:36.175Z,41
2018-07-27T01:05:26.173Z,40.9
2018-07-27T01:06:16.275Z,40.9
2018-07-27T01:07:06.640Z,40.9
2018-07-27T01:07:56.133Z,40.9
2018-07-27T01:08:45.668Z,40.9
2018-07-27T01:09:36.253Z,40.9
2018-07-27T01:10:26.568Z,40.9
2018-07-27T01:11:16.946Z,40.9
2018-07-27T01:12:06.370Z,40.9
2018-07-27T01:12:57.083Z,40.9
2018-07-27T01:13:46.860Z,40.9
2018-07-27T01:14:36.613Z,40.9
2018-07-27T01:15:26.987Z,40.9
2018-07-27T01:16:16.769Z,40.9
2018-07-27T01:17:06.546Z,40.9
2018-07-27T01:17:56.561Z,40.9
2018-07-27T01:18:47.179Z,40.9
2018-07-27T01:19:36.699Z,40.9
2018-07-27T01:20:27.669Z,40.9
2018-07-27T01:21:17.684Z,40.9
2018-07-27T01:22:07.196Z,40.8
2018-07-27T01:22:56.998Z,40.8
2018-07-27T01:23:47.820Z,40.8
2018-07-27T01:24:37.459Z,40.8
2018-07-27T01:25:26.957Z,40.8
2018-07-27T01:26:18.050Z,40.8
2018-07-27T01:27:07.299Z,40.8
2018-07-27T01:27:58.206Z,40.8
2018-07-27T01:28:47.993Z,40.8
2018-07-27T01:29:38.113Z,40.8
2018-07-27T01:30:28.395Z,40.8
2018-07-27T01:31:18.430Z,40.8
2018-07-27T01:32:07.399Z,40.8
2018-07-27T01:32:58.303Z,40.8
2018-07-27T01:33:48.362Z,40.8
2018-07-27T01:34:38.424Z,40.8
2018-07-27T01:35:28.527Z,40.8
2018-07-27T01:36:18.006Z,40.8
2018-07-27T01:37:07.824Z,40.8
2018-07-27T01:37:58.107Z,40.8
2018-07-27T01:38:48.229Z,40.8
2018-07-27T01:39:39.109Z,40.8
2018-07-27T01:40:28.334Z,40.8
2018-07-27T01:41:18.953Z,40.8
2018-07-27T01:42:08.160Z,40.8
2018-07-27T01:42:59.340Z,40.8
2018-07-27T01:43:49.096Z,40.8
2018-07-27T01:44:38.917Z,40.8
2018-07-27T01:45:28.980Z,40.7
2018-07-27T01:46:19.059Z,40.7
2018-07-27T01:47:09.625Z,40.7
2018-07-27T01:47:59.780Z,40.8
2018-07-27T01:48:49.482Z,40.7
2018-07-27T01:49:39.279Z,40.7
2018-07-27T01:50:29.919Z,40.7
2018-07-27T01:51:19.440Z,40.7
2018-07-27T01:52:09.232Z,40.7
2018-07-27T01:52:59.780Z,40.7
2018-07-27T01:53:50.155Z,40.7
2018-07-27T01:54:39.722Z,40.7
2018-07-27T01:55:29.762Z,40.7
2018-07-27T01:56:20.107Z,40.7
2018-07-27T01:57:10.109Z,40.7
2018-07-27T01:58:00.179Z,40.6
2018-07-27T01:58:50.271Z,40.6
2018-07-27T01:59:39.719Z,40.6
2018-07-27T02:00:30.665Z,40.6
2018-07-27T02:01:20.444Z,40.6
2018-07-27T02:02:10.577Z,40.7
2018-07-27T02:03:00.846Z,40.6
2018-07-27T02:03:50.081Z,40.6
2018-07-27T02:04:39.915Z,40.6
2018-07-27T02:05:30.520Z,40.6
2018-07-27T02:06:21.174Z,40.6
2018-07-27T02:07:10.421Z,40.6
2018-07-27T02:08:00.499Z,40.6
2018-07-27T02:08:51.390Z,40.6
2018-07-27T02:09:41.403Z,40.6
2018-07-27T02:10:31.219Z,40.6
2018-07-27T02:11:20.966Z,40.6
2018-07-27T02:12:11.353Z,40.6
2018-07-27T02:13:01.799Z,40.6
2018-07-27T02:13:51.464Z,40.6
2018-07-27T02:14:41.560Z,40.6
2018-07-27T02:15:31.274Z,40.6
2018-07-27T02:16:21.391Z,40.6
2018-07-27T02:17:11.452Z,40.6
2018-07-27T02:18:01.796Z,40.6
2018-07-27T02:18:51.289Z,40.6
2018-07-27T02:19:41.891Z,40.5
2018-07-27T02:20:31.369Z,40.6
2018-07-27T02:21:21.816Z,40.6
2018-07-27T02:22:12.097Z,40.5
2018-07-27T02:23:02.118Z,40.6
2018-07-27T02:23:52.219Z,40.5
2018-07-27T02:24:41.986Z,40.5
2018-07-27T02:25:32.077Z,40.5
2018-07-27T02:26:21.299Z,40.5
2018-07-27T02:27:11.909Z,40.5
2018-07-27T02:28:02.236Z,40.6
2018-07-27T02:28:52.836Z,40.5
2018-07-27T02:29:42.941Z,40.5
2018-07-27T02:30:31.987Z,40.5
2018-07-27T02:31:22.789Z,40.5
2018-07-27T02:32:13.126Z,40.5
2018-07-27T02:33:03.243Z,40.5
2018-07-27T02:33:53.057Z,40.5
2018-07-27T02:34:43.064Z,40.4
2018-07-27T02:35:32.821Z,40.4
2018-07-27T02:36:23.189Z,40.5
2018-07-27T02:37:13.215Z,40.4
2018-07-27T02:38:03.346Z,40.4
2018-07-27T02:38:53.073Z,40.4
2018-07-27T02:39:43.176Z,40.4
2018-07-27T02:40:33.508Z,40.4
2018-07-27T02:41:23.563Z,40.4
2018-07-27T02:42:13.322Z,40.4
2018-07-27T02:43:03.138Z,40.4
2018-07-27T02:43:53.229Z,40.4
2018-07-27T02:44:43.285Z,40.4
2018-07-27T02:45:33.410Z,40.4
2018-07-27T02:46:24.265Z,40.4
2018-07-27T02:47:14.035Z,40.4
2018-07-27T02:48:03.844Z,40.4
2018-07-27T02:48:53.885Z,40.4
2018-07-27T02:49:43.971Z,40.4
2018-07-27T02:50:34.284Z,40.4
2018-07-27T02:51:24.395Z,40.4
2018-07-27T02:52:14.695Z,40.4
2018-07-27T02:53:04.294Z,40.4
2018-07-27T02:53:54.282Z,40.4
2018-07-27T02:54:44.606Z,40.4
2018-07-27T02:55:34.657Z,40.4
2018-07-27T02:56:24.441Z,40.4
2018-07-27T02:57:14.767Z,40.4
2018-07-27T02:58:04.852Z,40.3
2018-07-27T02:58:54.573Z,40.3
2018-07-27T02:59:44.973Z,40.3
2018-07-27T03:00:35.012Z,40.3
2018-07-27T03:01:24.872Z,40.3
2018-07-27T03:02:14.595Z,40.3
2018-07-27T03:03:04.952Z,40.3
2018-07-27T03:03:55.582Z,40.3
2018-07-27T03:04:45.364Z,40.3
2018-07-27T03:05:35.451Z,40.3
2018-07-27T03:06:25.518Z,40.3
2018-07-27T03:07:15.831Z,40.3
2018-07-27T03:08:05.642Z,40.3
2018-07-27T03:08:55.108Z,40.3
2018-07-27T03:09:45.482Z,40.3
2018-07-27T03:10:35.271Z,40.3
2018-07-27T03:11:25.313Z,40.3
2018-07-27T03:12:15.696Z,40.3
2018-07-27T03:13:06.281Z,40.3
2018-07-27T03:13:55.781Z,40.3
2018-07-27T03:14:45.318Z,40.3
2018-07-27T03:15:35.615Z,40.3
2018-07-27T03:16:25.795Z,40.3
2018-07-27T03:17:15.711Z,40.2
2018-07-27T03:18:06.692Z,40.3
2018-07-27T03:18:56.719Z,40.2
2018-07-27T03:19:46.214Z,40.3
2018-07-27T03:20:36.609Z,40.2
2018-07-27T03:21:26.320Z,40.2
2018-07-27T03:22:16.127Z,40.2
2018-07-27T03:23:06.989Z,40.2
2018-07-27T03:23:56.836Z,40.2
2018-07-27T03:24:46.339Z,40.2
2018-07-27T03:25:37.030Z,40.2
2018-07-27T03:26:26.747Z,40.2
2018-07-27T03:27:16.766Z,40.2
2018-07-27T03:28:07.407Z,40.2
2018-07-27T03:28:56.335Z,40.2
2018-07-27T03:29:47.226Z,40.1
2018-07-27T03:30:37.762Z,40.1
2018-07-27T03:31:27.691Z,40.1
2018-07-27T03:32:17.017Z,40.1
2018-07-27T03:33:07.009Z,40.2
2018-07-27T03:33:57.612Z,40.1
2018-07-27T03:34:47.657Z,40.2
2018-07-27T03:35:37.440Z,40.1
2018-07-27T03:36:27.756Z,40.1
2018-07-27T03:37:17.544Z,40.1
2018-07-27T03:38:07.276Z,40.1
2018-07-27T03:38:57.920Z,40.1
2018-07-27T03:39:47.456Z,40.1
2018-07-27T03:40:38.097Z,40.1
2018-07-27T03:41:28.216Z,40.1
2018-07-27T03:42:17.817Z,40.1
2018-07-27T03:43:08.272Z,40.1
2018-07-27T03:43:58.370Z,40.1
2018-07-27T03:44:47.567Z,40.1
2018-07-27T03:45:38.300Z,40.1
2018-07-27T03:46:27.948Z,40.1
2018-07-27T03:47:17.751Z,40.1
2018-07-27T03:48:08.721Z,40.1
2018-07-27T03:48:58.973Z,40
2018-07-27T03:49:48.210Z,40
2018-07-27T03:50:38.041Z,40.1
2018-07-27T03:51:28.711Z,40
2018-07-27T03:52:19.253Z,40.1
2018-07-27T03:53:08.994Z,40
2018-07-27T03:53:58.793Z,40
2018-07-27T03:54:48.869Z,40
2018-07-27T03:55:39.250Z,40
2018-07-27T03:56:29.539Z,40
2018-07-27T03:57:18.800Z,39.9
2018-07-27T03:58:08.856Z,40
2018-07-27T03:58:58.925Z,40
2018-07-27T03:59:48.972Z,39.9
2018-07-27T04:00:39.049Z,40
2018-07-27T04:01:29.701Z,39.9
2018-07-27T04:02:20.099Z,39.9
2018-07-27T04:03:08.964Z,39.9
2018-07-27T04:04:00.175Z,39.9
2018-07-27T04:04:49.070Z,40
2018-07-27T04:05:40.250Z,39.9
2018-07-27T04:06:29.487Z,39.9
2018-07-27T04:07:20.008Z,39.9
2018-07-27T04:08:10.483Z,39.9
2018-07-27T04:08:59.986Z,39.9
2018-07-27T04:09:50.315Z,39.9
2018-07-27T04:10:39.597Z,39.9
2018-07-27T04:11:30.461Z,39.9
2018-07-27T04:12:20.797Z,39.9
2018-07-27T04:13:10.296Z,39.9
2018-07-27T04:13:59.881Z,39.9
2018-07-27T04:14:50.393Z,39.9
2018-07-27T04:15:41.013Z,39.9
2018-07-27T04:16:30.849Z,39.8
2018-07-27T04:17:20.415Z,39.8
2018-07-27T04:18:10.220Z,39.8
2018-07-27T04:19:00.249Z,39.8
2018-07-27T04:19:50.931Z,39.8
2018-07-27T04:20:40.395Z,39.8
2018-07-27T04:21:31.463Z,39.8
2018-07-27T04:22:20.230Z,39.8
2018-07-27T04:23:11.056Z,39.8
2018-07-27T04:24:00.570Z,39.8
2018-07-27T04:24:50.665Z,39.8
2018-07-27T04:25:41.264Z,39.8
2018-07-27T04:26:32.066Z,39.8
2018-07-27T04:27:21.177Z,39.8
2018-07-27T04:28:11.967Z,39.8
2018-07-27T04:29:02.084Z,39.8
2018-07-27T04:29:52.149Z,39.8
2018-07-27T04:30:41.343Z,39.8
2018-07-27T04:31:32.272Z,39.8
2018-07-27T04:32:21.256Z,39.8
2018-07-27T04:33:11.803Z,39.8
2018-07-27T04:34:02.458Z,39.8
2018-07-27T04:34:52.218Z,39.8
2018-07-27T04:35:42.812Z,39.8
2018-07-27T04:36:32.617Z,39.8
2018-07-27T04:37:22.700Z,39.8
2018-07-27T04:38:12.486Z,39.8
2018-07-27T04:39:02.845Z,39.8
2018-07-27T04:39:52.647Z,39.7
2018-07-27T04:40:42.415Z,39.8
2018-07-27T04:41:32.980Z,39.8
2018-07-27T04:42:23.040Z,39.8
2018-07-27T04:43:12.588Z,39.8
2018-07-27T04:44:03.205Z,39.7
2018-07-27T04:44:53.229Z,39.7
2018-07-27T04:45:42.747Z,39.8
2018-07-27T04:46:32.618Z,39.7
2018-07-27T04:47:22.930Z,39.8
2018-07-27T04:48:13.669Z,39.8
2018-07-27T04:49:03.024Z,39.7
2018-07-27T04:49:52.815Z,39.8
2018-07-27T04:50:43.417Z,39.8
2018-07-27T04:51:33.552Z,39.7
2018-07-27T04:52:23.595Z,39.8
2018-07-27T04:53:13.631Z,39.8
2018-07-27T04:54:04.015Z,39.7
2018-07-27T04:54:53.745Z,39.7
2018-07-27T04:55:43.254Z,39.7
2018-07-27T04:56:34.106Z,39.7
2018-07-27T04:57:23.706Z,39.7
2018-07-27T04:58:14.319Z,39.7
2018-07-27T04:59:03.801Z,39.7
2018-07-27T04:59:53.847Z,39.7
2018-07-27T05:00:43.731Z,39.6
2018-07-27T05:01:34.276Z,39.6
2018-07-27T05:02:24.619Z,39.7
2018-07-27T05:03:13.627Z,39.6
2018-07-27T05:04:04.695Z,39.6
2018-07-27T05:04:54.958Z,39.6
2018-07-27T05:05:44.550Z,39.6
2018-07-27T05:06:34.655Z,39.6
2018-07-27T05:07:24.399Z,39.6
2018-07-27T05:08:14.544Z,39.6
2018-07-27T05:09:05.106Z,39.6
2018-07-27T05:09:54.904Z,39.6
2018-07-27T05:10:45.219Z,39.6
2018-07-27T05:11:35.354Z,39.6
2018-07-27T05:12:24.910Z,39.6
2018-07-27T05:13:14.956Z,39.6
2018-07-27T05:14:05.473Z,39.6
2018-07-27T05:14:54.979Z,39.6
2018-07-27T05:15:45.626Z,39.6
2018-07-27T05:16:35.400Z,39.6
2018-07-27T05:17:24.979Z,39.6
2018-07-27T05:18:16.032Z,39.6
2018-07-27T05:19:05.383Z,39.5
2018-07-27T05:19:55.429Z,39.6
2018-07-27T05:20:45.781Z,39.6
2018-07-27T05:21:35.326Z,39.6
2018-07-27T05:22:24.625Z,39.6
2018-07-27T05:23:15.243Z,39.6
2018-07-27T05:24:05.570Z,39.6
2018-07-27T05:24:55.638Z,39.6
2018-07-27T05:25:45.858Z,39.6
2018-07-27T05:26:36.219Z,39.5
2018-07-27T05:27:25.983Z,39.6
2018-07-27T05:28:16.092Z,39.5
2018-07-27T05:29:06.661Z,39.5
2018-07-27T05:29:56.699Z,39.5
2018-07-27T05:30:46.242Z,39.5
2018-07-27T05:31:35.998Z,39.5
2018-07-27T05:32:25.874Z,39.5
2018-07-27T05:33:16.139Z,39.5
2018-07-27T05:34:06.199Z,39.5
2018-07-27T05:34:56.307Z,39.5
2018-07-27T05:35:46.065Z,39.5
2018-07-27T05:36:36.703Z,39.5
2018-07-27T05:37:27.302Z,39.4
2018-07-27T05:38:17.093Z,39.5
2018-07-27T05:39:06.882Z,39.4
2018-07-27T05:39:57.231Z,39.4
2018-07-27T05:40:46.979Z,39.4
2018-07-27T05:41:36.500Z,39.4
2018-07-27T05:42:27.094Z,39.4
2018-07-27T05:43:17.744Z,39.4
2018-07-27T05:44:07.529Z,39.4
2018-07-27T05:44:57.312Z,39.4
2018-07-27T05:45:46.779Z,39.4
2018-07-27T05:46:37.412Z,39.4
2018-07-27T05:47:27.532Z,39.4
2018-07-27T05:48:17.029Z,39.4
2018-07-27T05:49:07.920Z,39.4
2018-07-27T05:49:58.230Z,39.4
2018-07-27T05:50:48.337Z,39.4
2018-07-27T05:51:38.075Z,39.4
2018-07-27T05:52:28.121Z,39.4
2018-07-27T05:53:18.185Z,39.4
2018-07-27T05:54:08.304Z,39.4
2018-07-27T05:54:57.553Z,39.4
2018-07-27T05:55:48.665Z,39.3
2018-07-27T05:56:38.708Z,39.4
2018-07-27T05:57:28.826Z,39.4
2018-07-27T05:58:18.336Z,39.4
2018-07-27T05:59:08.390Z,39.4
2018-07-27T05:59:58.993Z,39.4
2018-07-27T06:00:48.814Z,39.4
2018-07-27T06:01:39.103Z,39.4
2018-07-27T06:02:28.685Z,39.4
2018-07-27T06:03:18.461Z,39.3
2018-07-27T06:04:09.083Z,39.3
2018-07-27T06:05:00.056Z,39.3
2018-07-27T06:05:49.505Z,39.4
2018-07-27T06:06:38.966Z,39.3
2018-07-27T06:07:29.035Z,39.3
2018-07-27T06:08:19.109Z,39.3
2018-07-27T06:09:09.178Z,39.4
2018-07-27T06:09:58.946Z,39.3
2018-07-27T06:10:49.328Z,39.3
2018-07-27T06:11:39.646Z,39.3
2018-07-27T06:12:28.822Z,39.3
2018-07-27T06:13:20.066Z,39.3
2018-07-27T06:14:10.093Z,39.3
2018-07-27T06:14:59.296Z,39.3
2018-07-27T06:15:50.166Z,39.3
2018-07-27T06:16:39.698Z,39.3
2018-07-27T06:17:30.091Z,39.3
2018-07-27T06:18:20.503Z,39.3
2018-07-27T06:19:10.477Z,39.3
2018-07-27T06:20:00.229Z,39.3
2018-07-27T06:20:50.298Z,39.3
2018-07-27T06:21:40.685Z,39.3
2018-07-27T06:22:30.207Z,39.3
2018-07-27T06:23:20.530Z,39.3
2018-07-27T06:24:12.597Z,39.3
2018-07-27T06:25:00.357Z,39.3
2018-07-27T06:25:50.807Z,39.3
2018-07-27T06:26:40.797Z,39.3
2018-07-27T06:27:30.817Z,39.3
2018-07-27T06:28:22.022Z,39.3
2018-07-27T06:29:11.736Z,39.3
2018-07-27T06:30:01.885Z,39.3
2018-07-27T06:30:51.315Z,39.3
2018-07-27T06:31:41.402Z,39.3
2018-07-27T06:32:31.035Z,39.3
2018-07-27T06:33:21.024Z,39.3
2018-07-27T06:34:11.089Z,39.2
2018-07-27T06:35:00.895Z,39.2
2018-07-27T06:35:50.050Z,39.3
2018-07-27T06:36:41.109Z,39.2
2018-07-27T06:37:31.612Z,39.3
2018-07-27T06:38:21.404Z,39.2
2018-07-27T06:39:13.195Z,39.2
2018-07-27T06:40:01.800Z,39.2
2018-07-27T06:40:51.855Z,39.2
2018-07-27T06:41:41.367Z,39.2
2018-07-27T06:42:31.728Z,39.2
2018-07-27T06:43:22.041Z,39.2
2018-07-27T06:44:12.128Z,39.2
2018-07-27T06:45:01.660Z,39.2
2018-07-27T06:45:51.501Z,39.2
2018-07-27T06:46:42.145Z,39.2
2018-07-27T06:47:31.276Z,39.2
2018-07-27T06:48:22.443Z,39.1
2018-07-27T06:49:11.489Z,39.1
2018-07-27T06:50:01.420Z,39.1
2018-07-27T06:50:52.418Z,39.1
2018-07-27T06:51:42.722Z,39.1
2018-07-27T06:52:33.654Z,39.1
2018-07-27T06:53:22.306Z,39.2
2018-07-27T06:54:12.936Z,39.2
2018-07-27T06:55:02.482Z,39.3
2018-07-27T06:55:52.770Z,39.3
2018-07-27T06:56:42.372Z,39.3
2018-07-27T06:57:33.410Z,39.3
2018-07-27T06:58:23.195Z,39.4
2018-07-27T06:59:13.248Z,39.4
2018-07-27T07:00:03.064Z,39.4
2018-07-27T07:00:52.835Z,39.4
2018-07-27T07:01:43.758Z,39.4
2018-07-27T07:02:32.990Z,39.4
2018-07-27T07:03:23.604Z,39.5
2018-07-27T07:04:13.386Z,39.5
2018-07-27T07:05:02.918Z,39.5
2018-07-27T07:05:53.175Z,39.6
2018-07-27T07:06:44.109Z,39.5
2018-07-27T07:07:33.886Z,39.5
2018-07-27T07:08:23.413Z,39.4
2018-07-27T07:09:14.454Z,39.4
2018-07-27T07:10:03.302Z,39.3
2018-07-27T07:10:54.202Z,39.3
2018-07-27T07:11:43.964Z,39.3
2018-07-27T07:12:33.749Z,39.2
2018-07-27T07:13:23.949Z,39.1
2018-07-27T07:14:13.877Z,39.1
2018-07-27T07:15:04.222Z,39.1
2018-07-27T07:15:54.224Z,39.1
2018-07-27T07:16:44.339Z,39
2018-07-27T07:17:34.686Z,39
2018-07-27T07:18:24.973Z,39
2018-07-27T07:19:15.075Z,38.9
2018-07-27T07:20:05.134Z,39
2018-07-27T07:20:54.636Z,38.9
2018-07-27T07:21:45.032Z,38.9
2018-07-27T07:22:34.499Z,38.9
2018-07-27T07:23:25.378Z,38.8
2018-07-27T07:24:15.449Z,38.8
2018-07-27T07:25:05.694Z,38.8
2018-07-27T07:26:00.379Z,38.8
2018-07-27T07:26:45.398Z,38.8
2018-07-27T07:27:35.152Z,38.8
2018-07-27T07:28:25.749Z,38.8
2018-07-27T07:29:15.549Z,38.8
2018-07-27T07:30:05.645Z,38.8
2018-07-27T07:30:55.968Z,38.8
2018-07-27T07:31:45.750Z,38.7
2018-07-27T07:32:35.541Z,38.7
2018-07-27T07:33:26.187Z,38.6
2018-07-27T07:34:16.264Z,38.7
2018-07-27T07:35:06.284Z,38.7
2018-07-27T07:35:55.476Z,38.6
2018-07-27T07:36:45.858Z,38.7
2018-07-27T07:37:36.159Z,37.1
2018-07-27T07:38:26.223Z,30.4
2018-07-27T07:39:17.650Z,35.6
2018-07-27T07:40:06.689Z,37.8
2018-07-27T07:40:56.722Z,38.4
2018-07-27T07:41:46.245Z,38.7
2018-07-27T07:42:36.972Z,38.8
2018-07-27T07:43:26.381Z,38.9
2018-07-27T07:44:16.795Z,38.9
2018-07-27T07:45:07.495Z,39.1
2018-07-27T07:45:56.372Z,39.1
2018-07-27T07:46:46.695Z,39.3
2018-07-27T07:47:37.192Z,39.3
2018-07-27T07:48:27.444Z,39.4
2018-07-27T07:49:17.377Z,39.4
2018-07-27T07:50:07.578Z,39.4
2018-07-27T07:50:57.321Z,39.4
2018-07-27T07:51:46.616Z,39.5
2018-07-27T07:52:36.368Z,39.6
2018-07-27T07:53:27.824Z,39.6
2018-07-27T07:54:17.274Z,39.6
2018-07-27T07:55:07.928Z,39.6
2018-07-27T07:55:57.211Z,39.5
2018-07-27T07:56:48.071Z,39.7
2018-07-27T07:57:37.652Z,42.9
2018-07-27T07:58:26.821Z,43.4
2018-07-27T07:59:18.226Z,43.4
2018-07-27T08:00:07.748Z,43.1
2018-07-27T08:00:57.801Z,42.8
2018-07-27T08:01:47.398Z,42.5
2018-07-27T08:02:37.479Z,42.3
2018-07-27T08:03:27.226Z,42
2018-07-27T08:04:17.697Z,41.8
2018-07-27T08:05:07.365Z,41.6
2018-07-27T08:05:57.957Z,41.5
2018-07-27T08:06:47.943Z,41.4
2018-07-27T08:07:37.986Z,41.3
2018-07-27T08:08:28.301Z,41.2
2018-07-27T08:09:18.330Z,41.1
2018-07-27T08:10:08.201Z,41
2018-07-27T08:10:58.010Z,40.9
2018-07-27T08:11:48.842Z,40.8
2018-07-27T08:12:38.875Z,40.8
2018-07-27T08:13:28.796Z,40.7
2018-07-27T08:14:18.545Z,40.2
2018-07-27T08:15:09.153Z,41.9
2018-07-27T08:15:58.995Z,46.5
2018-07-27T08:16:48.129Z,47.5
2018-07-27T08:17:39.072Z,47.2
2018-07-27T08:18:29.193Z,46.4
2018-07-27T08:19:19.470Z,46.1
2018-07-27T08:20:09.274Z,46.3
2018-07-27T08:20:59.309Z,46.8
2018-07-27T08:21:49.870Z,47.5
2018-07-27T08:22:39.736Z,47.9
2018-07-27T08:23:30.072Z,48.2
2018-07-27T08:24:19.511Z,48.3
2018-07-27T08:25:09.858Z,48.3
2018-07-27T08:26:00.754Z,48.6
2018-07-27T08:26:50.000Z,49.3
2018-07-27T08:27:39.241Z,49.7
2018-07-27T08:28:29.855Z,49.9
2018-07-27T08:29:20.196Z,50.1
2018-07-27T08:30:09.783Z,50.1
2018-07-27T08:31:00.059Z,50.2
2018-07-27T08:31:50.725Z,50.3
2018-07-27T08:32:40.490Z,50.4
2018-07-27T08:33:30.192Z,50.4
2018-07-27T08:34:20.517Z,50.4
2018-07-27T08:35:10.694Z,50.3
2018-07-27T08:36:00.194Z,50.3
2018-07-27T08:36:49.374Z,50.3
2018-07-27T08:37:41.377Z,50.3
2018-07-27T08:38:31.280Z,50.3
2018-07-27T08:39:20.484Z,50.3
2018-07-27T08:40:11.082Z,50.4
2018-07-27T08:41:01.176Z,50.4
2018-07-27T08:41:51.477Z,50.4
2018-07-27T08:42:41.074Z,50.5
2018-07-27T08:43:31.367Z,50.6
2018-07-27T08:44:21.091Z,50.6
2018-07-27T08:45:11.786Z,50.7
2018-07-27T08:46:01.304Z,50.8
2018-07-27T08:46:51.936Z,51
2018-07-27T08:47:41.652Z,51.2
2018-07-27T08:48:32.015Z,51.3
2018-07-27T08:49:21.511Z,51.3
2018-07-27T08:50:12.184Z,51.3
2018-07-27T08:51:01.945Z,51.3
2018-07-27T08:51:51.989Z,51.3
2018-07-27T08:52:41.521Z,51.5
2018-07-27T08:53:32.138Z,51.8
2018-07-27T08:54:22.156Z,52
2018-07-27T08:55:12.528Z,52.3
2018-07-27T08:56:01.228Z,52.6
2018-07-27T08:56:51.755Z,52.9
2018-07-27T08:57:41.698Z,53.2
2018-07-27T08:58:31.866Z,53.4
2018-07-27T08:59:21.993Z,53.5
2018-07-27T09:00:12.581Z,53.5
2018-07-27T09:01:02.689Z,53.6
2018-07-27T09:01:52.173Z,53.8
2018-07-27T09:02:42.403Z,54.2
2018-07-27T09:03:32.560Z,54.8
2018-07-27T09:04:21.660Z,55.3
2018-07-27T09:05:12.485Z,55.3
2018-07-27T09:06:02.823Z,55.1
2018-07-27T09:06:52.828Z,55.1
2018-07-27T09:07:42.088Z,55.3
2018-07-27T09:08:32.920Z,55.6
2018-07-27T09:09:23.016Z,56.3
2018-07-27T09:10:13.340Z,57
2018-07-27T09:11:02.825Z,57.6
2018-07-27T09:11:53.342Z,57.9
2018-07-27T09:12:43.598Z,58.1
2018-07-27T09:13:33.926Z,58.1
2018-07-27T09:14:22.602Z,58.2
2018-07-27T09:15:14.092Z,58.1
2018-07-27T09:16:03.889Z,58.2
2018-07-27T09:16:53.665Z,58
2018-07-27T09:17:44.268Z,57.9
2018-07-27T09:18:34.314Z,58.3
2018-07-27T09:19:24.149Z,58.6
2018-07-27T09:20:14.187Z,58.9
2018-07-27T09:21:04.588Z,59.1
2018-07-27T09:21:54.614Z,59.3
2018-07-27T09:22:44.107Z,59.5
2018-07-27T09:23:34.214Z,59.6
2018-07-27T09:24:26.099Z,59.8
2018-07-27T09:25:20.272Z,59.9
2018-07-27T09:26:05.104Z,60.1
2018-07-27T09:26:54.989Z,60.3
2018-07-27T09:27:44.166Z,60.4
2018-07-27T09:28:35.088Z,60.7
2018-07-27T09:29:25.231Z,60.9
2018-07-27T09:30:14.689Z,61
2018-07-27T09:31:05.319Z,61.2
2018-07-27T09:31:54.559Z,61.3
2018-07-27T09:32:45.403Z,61.4
2018-07-27T09:33:34.853Z,61.6
2018-07-27T09:34:24.963Z,61.7
2018-07-27T09:35:15.247Z,61.7
2018-07-27T09:36:05.397Z,61.8
2018-07-27T09:36:55.221Z,61.9
2018-07-27T09:37:45.040Z,62
2018-07-27T09:38:35.677Z,62.2
2018-07-27T09:39:25.381Z,62.4
2018-07-27T09:40:15.180Z,62.5
2018-07-27T09:41:05.251Z,62.7
2018-07-27T09:41:54.948Z,62.8
2018-07-27T09:42:45.903Z,62.9
2018-07-27T09:43:35.848Z,63
2018-07-27T09:44:25.353Z,63.1
2018-07-27T09:45:16.387Z,63.2
2018-07-27T09:46:06.521Z,63.4
2018-07-27T09:46:55.989Z,63.5
2018-07-27T09:47:45.787Z,63.6
2018-07-27T09:48:35.197Z,63.8
2018-07-27T09:49:26.801Z,63.9
2018-07-27T09:50:16.852Z,63.9
2018-07-27T09:51:06.888Z,63.9
2018-07-27T09:51:56.399Z,64
2018-07-27T09:52:46.427Z,64
2018-07-27T09:53:35.867Z,64.1
2018-07-27T09:54:26.579Z,64.1
2018-07-27T09:55:17.144Z,64.2
2018-07-27T09:56:06.350Z,63.9
2018-07-27T09:56:56.772Z,63
2018-07-27T09:57:46.856Z,62.4
2018-07-27T09:58:37.450Z,62.6
2018-07-27T09:59:27.202Z,63.2
2018-07-27T10:00:16.499Z,63.7
2018-07-27T10:01:07.358Z,64.1
2018-07-27T10:01:57.686Z,64.3
2018-07-27T10:02:47.411Z,64.4
2018-07-27T10:03:37.788Z,64.4
2018-07-27T10:04:27.823Z,64.5
2018-07-27T10:05:17.896Z,64.6
2018-07-27T10:06:07.729Z,64.8
2018-07-27T10:06:57.734Z,64.9
2018-07-27T10:07:47.564Z,65
2018-07-27T10:08:37.306Z,65.1
2018-07-27T10:09:27.399Z,65.3
2018-07-27T10:10:18.305Z,65.4
2018-07-27T10:11:07.476Z,65.6
2018-07-27T10:11:57.851Z,65.7
2018-07-27T10:12:47.639Z,65.8
2018-07-27T10:13:38.263Z,65.8
2018-07-27T10:14:27.996Z,65.9
2018-07-27T10:15:16.975Z,65.9
2018-07-27T10:16:07.896Z,65.9
2018-07-27T10:16:58.521Z,66.1
2018-07-27T10:17:48.265Z,66.2
2018-07-27T10:18:38.844Z,66.2
2018-07-27T10:19:28.373Z,66.3
2018-07-27T10:20:17.732Z,66.3
2018-07-27T10:21:08.585Z,66.3
2018-07-27T10:21:59.152Z,66.3
2018-07-27T10:22:49.295Z,66.4
2018-07-27T10:23:38.804Z,66.4
2018-07-27T10:24:28.340Z,66.5
2018-07-27T10:25:19.180Z,66.6
2018-07-27T10:26:09.032Z,66.7
2018-07-27T10:26:59.087Z,66.8
2018-07-27T10:27:49.682Z,66.8
2018-07-27T10:28:39.201Z,66.9
2018-07-27T10:29:29.532Z,67
2018-07-27T10:30:19.629Z,67.1
2018-07-27T10:31:10.127Z,67.2
2018-07-27T10:32:00.040Z,67.3
2018-07-27T10:32:50.072Z,67.4
2018-07-27T10:33:39.327Z,67.4
2018-07-27T10:34:30.201Z,67.5
2018-07-27T10:35:19.702Z,67.5
2018-07-27T10:36:10.309Z,67.6
2018-07-27T10:36:59.835Z,67.6
2018-07-27T10:37:50.493Z,67.6
2018-07-27T10:38:40.825Z,67.7
2018-07-27T10:39:30.619Z,67.8
2018-07-27T10:40:20.361Z,67.8
2018-07-27T10:41:10.451Z,67.8
2018-07-27T10:42:00.766Z,67.9
2018-07-27T10:42:50.741Z,67.9
2018-07-27T10:43:40.975Z,67.8
2018-07-27T10:44:30.396Z,67.8
2018-07-27T10:45:20.740Z,67.8
2018-07-27T10:46:10.563Z,67.9
2018-07-27T10:47:00.026Z,67.9
2018-07-27T10:47:50.081Z,67.9
2018-07-27T10:48:41.003Z,68
2018-07-27T10:49:31.043Z,68.1
2018-07-27T10:50:22.074Z,68.1
2018-07-27T10:51:10.345Z,68.2
2018-07-27T10:52:00.689Z,68.2
2018-07-27T10:52:51.750Z,68.3
2018-07-27T10:53:40.528Z,68.3
2018-07-27T10:54:31.158Z,68.4
2018-07-27T10:55:20.663Z,68.5
2018-07-27T10:56:10.723Z,68.6
2018-07-27T10:57:01.331Z,68.6
2018-07-27T10:57:51.722Z,68.7
2018-07-27T10:58:41.598Z,68.8
2018-07-27T10:59:31.554Z,68.8
2018-07-27T11:00:21.930Z,68.8
2018-07-27T11:01:12.037Z,68.9
2018-07-27T11:02:01.780Z,68.9
2018-07-27T11:02:52.400Z,69
2018-07-27T11:03:42.468Z,69
2018-07-27T11:04:32.542Z,69.1
2018-07-27T11:05:22.318Z,69.1
2018-07-27T11:06:12.683Z,69.1
2018-07-27T11:07:02.467Z,69.1
2018-07-27T11:07:52.504Z,69.2
2018-07-27T11:08:43.344Z,69.3